Hlavní strana
METAR-TAF:

METAR-TAF

Letiště :

Ropná věž

Norne Fpso, Norsko

zeměpisná šířka: 66-01-48N, zeměpisná délka: 008-04-48E, výška: 10 m

Aktuální stav počasí

Zpráva byla vytvořena před 20 minutami, v 18:50 UTC
Jižní vítr 30 kt
Teplota 9°C
Vlhkost vzduchu 81%
Tlak 1005 hPa
Viditelnost 10 km a více
slabé dešťové přeháňky

METAR: ENNE 061850Z AUTO 18030KT 9999NDV -SHRA BKN056/// 09/06 Q1005 W///S5

Čas: 21:10 (19:10 UTC)

Předpověď počasí

Zpráva byla vytvořena před 8 hodinami a 10 minutami, v 11:00 UTC
Předpověď platná od 06 v 12 UTC do 06 v 17 UTC
Jihojihovýchodní vítr 30 kt
Viditelnost 10 km a více
Oblačno až skoro zataženo ve výšce 5000 ft

TAF: ENNE 061100Z 0612/0617 16030KT 9999 BKN050

Stav a předpovědi počasí z více než 4 000 letišť (zprávy METAR a TAF).

Červené a žluté tečky na mapě představují dostupné meteorologické stanice.

Když kurzor umístíte na tečku, zobrazí se název stanice.

Pak kliknutím zobrazíte stav a předpověď počasí.

Chcete-li změnit mapu, kliknutím na zelené tlačítko se znaménkem +mapu přiblížíte, kliknutím na zelené tlačítko se znaménkem – mapu oddálíte a kliknutím na zelené šipky přejdete na sousední mapy.


METAR-TAF: